Time;durP1;ratioP1;P1;durP2;ratioP2;P2;SDS_P1;SDS_P2;PMS_P1;PMS_P2;Temp;Humidity;BMP_temperature;BMP_pressure;BME280_temperature;BME280_humidity;BME280_pressure;Samples;Min_cycle;Max_cycle;Signal;HPM_P1;HPM_P2
2023/09/01 00:02:07;;;;;;;;;;;;;;;11.59;100.00;101200.06;5029597;28;19940;-88
2023/09/01 00:04:54;;;;;;;;;;;;;;;11.56;100.00;101205.50;4959983;28;19930;-87
2023/09/01 00:07:40;;;;;;;;;;;;;;;11.54;100.00;101205.56;4948943;28;19930;-87
2023/09/01 00:10:25;;;;;;;;;;;;;;;11.51;100.00;101210.97;5032711;28;19932;-89
2023/09/01 00:13:11;;;;;;;;;;;;;;;11.49;100.00;101210.19;5030949;28;19982;-90
2023/09/01 00:15:57;;;;;;;;;;;;;;;11.46;100.00;101209.47;5023145;28;19932;-89
2023/09/01 00:18:43;;;;;;;;;;;;;;;11.44;100.00;101206.88;5020382;28;19932;-90
2023/09/01 00:21:28;;;;;;;;;;;;;;;11.45;100.00;101205.09;4954366;28;19926;-86
2023/09/01 00:24:14;;;;;;;;;;;;;;;11.42;100.00;101208.75;4990922;28;19934;-88
2023/09/01 00:27:00;;;;;;;;;;;;;;;11.43;100.00;101204.31;4962779;28;20328;-87
2023/09/01 00:29:45;;;;;;;;;;;;;;;11.42;100.00;101203.44;4948688;28;19930;-86
2023/09/01 00:32:31;;;;;;;;;;;;;;;11.43;100.00;101210.47;4948721;28;19930;-88
2023/09/01 00:35:17;;;;;;;;;;;;;;;11.44;100.00;101211.34;4947886;28;19965;-87
2023/09/01 00:38:02;;;;;;;;;;;;;;;11.44;100.00;101211.34;4962506;28;20108;-88
2023/09/01 00:40:51;;;;;;;;;;;;;;;11.41;100.00;101196.41;4952649;28;20282;-88
2023/09/01 00:43:36;;;;;;;;;;;;;;;11.43;100.00;101205.16;4952107;28;19957;-86
2023/09/01 00:46:22;;;;;;;;;;;;;;;11.41;100.00;101204.38;4953934;28;19928;-88
2023/09/01 00:49:07;;;;;;;;;;;;;;;11.39;100.00;101193.81;4959172;28;19962;-90
2023/09/01 00:51:53;;;;;;;;;;;;;;;11.40;100.00;101194.69;4965114;28;19984;-89
2023/09/01 00:54:42;;;;;;;;;;;;;;;11.40;100.00;101189.41;4932631;28;20287;-87
2023/09/01 00:57:27;;;;;;;;;;;;;;;11.39;100.00;101195.63;4999949;28;19988;-88
2023/09/01 01:00:13;;;;;;;;;;;;;;;11.34;100.00;101197.59;4944233;28;20427;-89
2023/09/01 01:03:04;;;;;;;;;;;;;;;11.31;100.00;101189.78;4967203;28;20788;-89
2023/09/01 01:05:56;;;;;;;;;;;;;;;11.30;100.00;101193.34;4974551;28;19945;-89
2023/09/01 01:08:42;;;;;;;;;;;;;;;11.31;100.00;101192.44;4947542;28;19926;-87
2023/09/01 01:11:43;;;;;;;;;;;;;;;11.28;100.00;101202.25;4936579;28;19926;-89
2023/09/01 01:14:30;;;;;;;;;;;;;;;11.27;100.00;101197.88;4953755;28;19996;-89
2023/09/01 01:17:19;;;;;;;;;;;;;;;11.25;100.00;101202.38;4961740;28;20024;-89
2023/09/01 01:20:17;;;;;;;;;;;;;;;11.26;100.00;101203.22;4953674;28;20013;-88
2023/09/01 01:23:07;;;;;;;;;;;;;;;11.23;100.00;101204.22;4959821;28;19992;-88
2023/09/01 01:25:52;;;;;;;;;;;;;;;11.18;100.00;101206.22;4994195;28;19931;-88
2023/09/01 01:28:38;;;;;;;;;;;;;;;11.17;100.00;101209.78;4997250;28;19930;-88
2023/09/01 01:31:24;;;;;;;;;;;;;;;11.17;100.00;101209.78;5010661;28;19997;-89
2023/09/01 01:34:10;;;;;;;;;;;;;;;11.15;100.00;101201.03;4948767;28;20637;-87
2023/09/01 01:37:14;;;;;;;;;;;;;;;11.14;100.00;101201.97;4943903;28;20352;-87
2023/09/01 01:39:59;;;;;;;;;;;;;;;11.11;100.00;101204.75;4941667;28;20410;-88
2023/09/01 01:42:47;;;;;;;;;;;;;;;11.08;100.00;101195.16;4983975;28;19930;-89
2023/09/01 01:45:32;;;;;;;;;;;;;;;11.08;100.00;101200.44;4956547;28;19930;-89
2023/09/01 01:48:18;;;;;;;;;;;;;;;11.09;100.00;101196.88;4929929;28;19925;-89
2023/09/01 01:51:05;;;;;;;;;;;;;;;11.09;100.00;101201.28;4952386;28;19934;-89
2023/09/01 01:53:51;;;;;;;;;;;;;;;11.08;100.00;101200.44;4953222;28;19931;-90
2023/09/01 01:56:36;;;;;;;;;;;;;;;11.07;100.00;101200.50;4953028;28;19930;-88
2023/09/01 01:59:22;;;;;;;;;;;;;;;11.10;100.00;101203.00;4945153;28;21705;-88
2023/09/01 02:02:08;;;;;;;;;;;;;;;11.10;100.00;101203.00;5009751;28;19960;-91
2023/09/01 02:04:53;;;;;;;;;;;;;;;11.04;100.00;101204.13;4994826;28;19975;-90
2023/09/01 02:07:39;;;;;;;;;;;;;;;11.03;100.00;101204.19;5010915;28;19938;-91
2023/09/01 02:10:25;;;;;;;;;;;;;;;11.02;100.00;101194.53;5004154;28;19930;-89
2023/09/01 02:13:10;;;;;;;;;;;;;;;11.02;100.00;101200.69;4950287;28;19930;-90
2023/09/01 02:15:56;;;;;;;;;;;;;;;10.99;100.00;101200.81;4947811;28;19957;-88
2023/09/01 02:18:41;;;;;;;;;;;;;;;10.99;100.00;101199.03;4950851;28;19930;-87
2023/09/01 02:21:27;;;;;;;;;;;;;;;10.99;100.00;101199.03;5013422;28;20013;-90
2023/09/01 02:24:13;;;;;;;;;;;;;;;10.94;100.00;101195.72;5004504;28;19933;-90
2023/09/01 02:26:58;;;;;;;;;;;;;;;10.91;100.00;101198.50;4959439;28;20002;-88
2023/09/01 02:29:44;;;;;;;;;;;;;;;10.87;100.00;101196.91;4968910;28;19985;-89
2023/09/01 02:32:29;;;;;;;;;;;;;;;10.83;100.00;101197.94;4997311;28;20381;-89
2023/09/01 02:35:16;;;;;;;;;;;;;;;10.80;100.00;101203.38;4972615;28;19926;-89
2023/09/01 02:38:01;;;;;;;;;;;;;;;10.77;100.00;101207.00;4957842;28;19930;-90
2023/09/01 02:40:48;;;;;;;;;;;;;;;10.75;100.00;101202.69;4973611;28;19941;-87
2023/09/01 02:43:34;;;;;;;;;;;;;;;10.71;100.00;101209.88;4997973;28;21800;-88
2023/09/01 02:46:22;;;;;;;;;;;;;;;10.68;100.00;101197.63;4963946;28;19937;-88
2023/09/01 02:49:08;;;;;;;;;;;;;;;10.64;100.00;101200.47;4962897;28;19934;-90
2023/09/01 02:51:54;;;;;;;;;;;;;;;10.63;100.00;101199.63;4962004;28;19935;-88
2023/09/01 02:54:40;;;;;;;;;;;;;;;10.63;100.00;101193.44;4947251;28;20031;-89
2023/09/01 02:57:25;;;;;;;;;;;;;;;10.59;100.00;101196.22;4954425;28;19949;-89
2023/09/01 03:00:15;;;;;;;;;;;;;;;10.56;100.00;101198.13;4963815;28;19950;-89
2023/09/01 03:03:00;;;;;;;;;;;;;;;10.53;100.00;101193.84;4954259;28;19933;-89
2023/09/01 03:05:48;;;;;;;;;;;;;;;10.50;100.00;101198.38;4974044;28;19933;-88
2023/09/01 03:08:41;;;;;;;;;;;;;;;10.48;100.00;101208.16;4955427;28;20060;-89
2023/09/01 03:11:27;;;;;;;;;;;;;;;10.44;100.00;101210.94;4959181;28;19930;-87
2023/09/01 03:14:13;;;;;;;;;;;;;;;10.40;100.00;101209.28;4953281;28;19942;-87
2023/09/01 03:16:58;;;;;;;;;;;;;;;10.39;100.00;101198.75;4969385;28;19930;-88
2023/09/01 03:19:44;;;;;;;;;;;;;;;10.36;100.00;101197.13;4960689;28;19938;-88
2023/09/01 03:22:30;;;;;;;;;;;;;;;10.38;100.00;101197.91;4962045;28;21855;-87
2023/09/01 03:25:19;;;;;;;;;;;;;;;10.39;100.00;101206.69;4960230;28;19941;-87
2023/09/01 03:28:04;;;;;;;;;;;;;;;10.40;100.00;101209.28;4957340;28;19992;-88
2023/09/01 03:30:50;;;;;;;;;;;;;;;10.45;100.00;101206.47;4994812;28;19963;-88
2023/09/01 03:33:36;;;;;;;;;;;;;;;10.48;100.00;101208.16;4958923;28;19980;-87
2023/09/01 03:36:24;;;;;;;;;;;;;;;10.50;100.00;101211.63;4991943;28;19929;-88
2023/09/01 03:39:10;;;;;;;;;;;;;;;10.50;100.00;101208.97;4965654;28;20900;-89
2023/09/01 03:41:56;;;;;;;;;;;;;;;10.49;100.00;101208.09;4961770;28;19952;-89
2023/09/01 03:44:44;;;;;;;;;;;;;;;10.52;100.00;101196.53;4955755;28;19930;-88
2023/09/01 03:47:30;;;;;;;;;;;;;;;10.50;100.00;101203.69;4967229;28;19940;-88
2023/09/01 03:50:15;;;;;;;;;;;;;;;10.48;100.00;101200.22;5004222;28;19933;-89
2023/09/01 03:53:01;;;;;;;;;;;;;;;10.43;100.00;101193.34;4952112;28;19934;-88
2023/09/01 03:55:46;;;;;;;;;;;;;;;10.42;100.00;101201.28;4979441;28;19983;-88
2023/09/01 03:58:32;;;;;;;;;;;;;;;10.39;100.00;101206.69;5027586;28;19930;-89
2023/09/01 04:01:18;;;;;;;;;;;;;;;10.34;100.00;101198.94;5000387;28;19933;-87
2023/09/01 04:04:06;;;;;;;;;;;;;;;10.29;100.00;101200.88;5043152;28;19929;-87
2023/09/01 04:06:52;;;;;;;;;;;;;;;10.25;100.00;101210.72;4963248;28;19937;-89
2023/09/01 04:09:38;;;;;;;;;;;;;;;10.22;100.00;101212.63;5013332;28;20347;-87
2023/09/01 04:12:23;;;;;;;;;;;;;;;10.17;100.00;101203.09;4993369;28;20231;-88
2023/09/01 04:15:12;;;;;;;;;;;;;;;10.17;100.00;101203.09;4948218;28;19933;-87
2023/09/01 04:17:58;;;;;;;;;;;;;;;10.14;100.00;101200.56;4974305;28;19934;-88
2023/09/01 04:20:50;;;;;;;;;;;;;;;10.14;100.00;101202.34;4951432;28;19934;-88
2023/09/01 04:23:39;;;;;;;;;;;;;;;10.12;100.00;101205.06;4982944;28;19930;-88
2023/09/01 04:26:28;;;;;;;;;;;;;;;10.09;100.00;101207.84;4945018;28;19952;-89
2023/09/01 04:29:14;;;;;;;;;;;;;;;10.08;100.00;101202.59;4950390;28;19944;-88
2023/09/01 04:32:00;;;;;;;;;;;;;;;10.10;100.00;101206.03;4964181;28;20373;-88
2023/09/01 04:34:45;;;;;;;;;;;;;;;10.07;100.00;101204.34;4959572;28;20408;-88
2023/09/01 04:37:37;;;;;;;;;;;;;;;10.05;100.00;101209.72;4958195;28;20455;-88
2023/09/01 04:40:23;;;;;;;;;;;;;;;10.04;100.00;101210.63;4938783;28;19998;-87
2023/09/01 04:43:09;;;;;;;;;;;;;;;10.03;100.00;101206.25;4957881;28;19937;-87
2023/09/01 04:45:54;;;;;;;;;;;;;;;10.04;100.00;101215.06;4955678;28;20008;-88
2023/09/01 04:48:40;;;;;;;;;;;;;;;10.06;100.00;101210.56;4934981;28;19952;-88
2023/09/01 04:51:28;;;;;;;;;;;;;;;10.07;100.00;101216.75;4958312;28;19941;-89
2023/09/01 04:54:14;;;;;;;;;;;;;;;10.06;100.00;101218.50;4940430;28;20005;-88
2023/09/01 04:57:01;;;;;;;;;;;;;;;10.08;100.00;101218.47;4940977;28;19934;-88
2023/09/01 04:59:48;;;;;;;;;;;;;;;10.10;100.00;101227.19;4942057;28;19972;-87
2023/09/01 05:02:34;;;;;;;;;;;;;;;10.10;100.00;101228.06;4953992;28;19930;-89
2023/09/01 05:05:19;;;;;;;;;;;;;;;10.09;100.00;101229.00;4953076;28;19925;-88
2023/09/01 05:08:05;;;;;;;;;;;;;;;10.11;100.00;101232.44;4951292;28;19997;-89
2023/09/01 05:10:54;;;;;;;;;;;;;;;10.14;100.00;101234.94;4945554;28;19907;-88
2023/09/01 05:13:40;;;;;;;;;;;;;;;10.14;100.00;101232.31;4977757;28;19930;-89
2023/09/01 05:16:29;;;;;;;;;;;;;;;10.16;100.00;101233.13;4963019;28;19974;-81
2023/09/01 05:19:15;;;;;;;;;;;;;;;10.20;100.00;101233.88;4938388;28;19925;-87
2023/09/01 05:22:00;;;;;;;;;;;;;;;10.22;100.00;101226.75;4961312;28;19930;-87
2023/09/01 05:24:49;;;;;;;;;;;;;;;10.27;100.00;101230.09;4935706;28;19937;-87
2023/09/01 05:27:37;;;;;;;;;;;;;;;10.30;100.00;101232.59;4977908;28;20288;-87
2023/09/01 05:30:22;;;;;;;;;;;;;;;10.35;100.00;101237.72;4972563;28;19929;-87
2023/09/01 05:33:08;;;;;;;;;;;;;;;10.39;100.00;101243.75;4957320;28;19956;-88
2023/09/01 05:35:54;;;;;;;;;;;;;;;10.43;100.00;101238.34;4958737;28;20407;-86
2023/09/01 05:38:39;;;;;;;;;;;;;;;10.49;100.00;101239.88;4958749;28;19976;-87
2023/09/01 05:41:25;;;;;;;;;;;;;;;10.54;100.00;101245.84;4965682;28;19937;-87
2023/09/01 05:44:11;;;;;;;;;;;;;;;10.62;100.00;101245.53;4950508;28;19931;-88
2023/09/01 05:46:56;;;;;;;;;;;;;;;10.69;100.00;101252.31;4971055;28;20016;-87
2023/09/01 05:49:45;;;;;;;;;;;;;;;10.75;100.00;101243.28;4978255;28;19933;-87
2023/09/01 05:52:31;;;;;;;;;;;;;;;10.81;100.00;101244.81;4981017;28;20033;-88
2023/09/01 05:55:20;;;;;;;;;;;;;;;10.87;100.00;101247.22;4968611;28;19930;-87
2023/09/01 05:58:06;;;;;;;;;;;;;;;10.92;100.00;101245.25;4978508;28;19972;-86
2023/09/01 06:00:51;;;;;;;;;;;;;;;10.98;100.00;101244.13;4973849;28;19934;-87
2023/09/01 06:03:37;;;;;;;;;;;;;;;11.04;100.00;101248.31;4951804;28;19926;-86
2023/09/01 06:06:23;;;;;;;;;;;;;;;11.09;100.00;101243.69;4942300;28;19941;-87
2023/09/01 06:09:09;;;;;;;;;;;;;;;11.15;100.00;101243.44;4974632;28;19933;-85
2023/09/01 06:11:55;;;;;;;;;;;;;;;11.23;100.00;101236.03;4938918;28;19964;-88
2023/09/01 06:14:44;;;;;;;;;;;;;;;11.32;100.00;101247.19;4969200;28;20366;-88
2023/09/01 06:17:37;;;;;;;;;;;;;;;11.39;100.00;101241.53;5009233;28;20304;-90
2023/09/01 06:20:33;;;;;;;;;;;;;;;11.53;100.00;101248.91;4980964;28;19930;-87
2023/09/01 06:23:20;;;;;;;;;;;;;;;11.63;100.00;101245.84;4971067;28;19914;-88
2023/09/01 06:26:05;;;;;;;;;;;;;;;11.71;100.00;101249.03;4949464;28;20396;-87
2023/09/01 06:32:34;;;;;;;;;;;;;;;;;;;;;
2023/09/01 06:35:21;;;;;;;;;;;;;;;12.05;100.00;101252.03;5037389;28;19928;-86
2023/09/01 06:38:06;;;;;;;;;;;;;;;12.19;100.00;101254.03;5050781;28;19952;-85
2023/09/01 06:40:52;;;;;;;;;;;;;;;12.29;100.00;101254.47;5052669;28;19939;-86
2023/09/01 06:43:38;;;;;;;;;;;;;;;12.32;100.00;101263.16;5056287;28;19932;-86
2023/09/01 06:46:26;;;;;;;;;;;;;;;12.38;100.00;101261.16;5056189;28;20010;-85
2023/09/01 06:49:20;;;;;;;;;;;;;;;12.43;100.00;101259.16;5033541;28;20812;-84
2023/09/01 06:52:05;;;;;;;;;;;;;;;12.48;100.00;101263.31;5046473;28;19950;-84
2023/09/01 06:54:51;;;;;;;;;;;;;;;12.57;100.00;101256.72;5049799;28;20338;-85
2023/09/01 06:57:43;;;;;;;;;;;;;;;12.63;100.00;101267.03;5068601;28;19929;-85
2023/09/01 07:00:29;;;;;;;;;;;;;;;12.67;100.00;101262.44;5049955;28;19932;-86
2023/09/01 07:03:14;;;;;;;;;;;;;;;12.71;100.00;101269.34;5039562;28;19933;-84
2023/09/01 07:06:00;;;;;;;;;;;;;;;12.74;100.00;101273.63;5037140;28;19999;-84
2023/09/01 07:08:46;;;;;;;;;;;;;;;12.78;100.00;101277.88;5041786;28;19925;-85
2023/09/01 07:11:37;;;;;;;;;;;;;;;12.85;100.00;101279.28;5062501;28;19929;-87
2023/09/01 07:14:23;;;;;;;;;;;;;;;12.93;100.00;101280.72;5052967;28;19982;-87
2023/09/01 07:17:12;;;;;;;;;;;;;;;13.01;100.00;101276.75;5046029;28;19921;-89
2023/09/01 07:19:58;;;;;;;;;;;;;;;13.13;100.00;101275.28;5027123;28;19933;-87
2023/09/01 07:22:53;;;;;;;;;;;;;;;13.23;100.00;101274.84;5054624;28;19936;-87
2023/09/01 07:25:44;;;;;;;;;;;;;;;13.30;100.00;101273.59;5042725;28;19928;-84
2023/09/01 07:29:19;;;;;;;;;;;;;;;13.36;100.00;101275.97;5059041;28;19928;-88
2023/09/01 07:32:47;;;;;;;;;;;;;;;13.46;100.00;101265.75;5039724;28;19928;-86
2023/09/01 07:35:34;;;;;;;;;;;;;;;13.53;100.00;101271.59;5037306;28;19933;-86
2023/09/01 07:38:20;;;;;;;;;;;;;;;13.60;100.00;101270.34;5047786;28;19928;-86
2023/09/01 07:41:07;;;;;;;;;;;;;;;13.67;100.00;101273.56;5049546;28;19908;-87
2023/09/01 07:43:55;;;;;;;;;;;;;;;13.77;100.00;101263.31;4999263;28;20570;-86
2023/09/01 07:46:41;;;;;;;;;;;;;;;13.86;100.00;101268.13;5016563;28;19924;-86
2023/09/01 07:49:30;;;;;;;;;;;;;;;13.95;100.00;101272.97;5051981;28;19925;-87
2023/09/01 07:52:16;;;;;;;;;;;;;;;14.04;100.00;101265.41;5051339;28;20025;-91
2023/09/01 07:55:05;;;;;;;;;;;;;;;14.13;100.00;101276.44;5048311;28;19998;-87
2023/09/01 07:57:53;;;;;;;;;;;;;;;14.25;100.00;101269.59;5004877;28;20025;-87
2023/09/01 08:00:42;;;;;;;;;;;;;;;14.36;100.00;101277.00;5003114;28;19960;-81
2023/09/01 08:03:27;;;;;;;;;;;;;;;14.44;100.00;101273.91;5011483;28;19944;-82
2023/09/01 08:06:13;;;;;;;;;;;;;;;14.53;100.00;101267.22;5034158;28;19942;-84
2023/09/01 08:08:59;;;;;;;;;;;;;;;14.63;100.00;101267.56;5043497;28;19929;-84
2023/09/01 08:11:45;;;;;;;;;;;;;;;14.73;100.00;101275.91;4997653;28;19928;-86
2023/09/01 08:14:30;;;;;;;;;;;;;;;14.83;100.00;101273.63;5024938;28;20101;-84
2023/09/01 08:17:16;;;;;;;;;;;;;;;14.95;100.00;101278.25;5033732;28;20067;-85
2023/09/01 08:20:03;;;;;;;;;;;;;;;15.03;100.00;101281.34;5008636;28;20023;-86
2023/09/01 08:22:57;;;;;;;;;;;;;;;15.11;100.00;101277.38;5020482;28;19959;-85
2023/09/01 08:25:43;;;;;;;;;;;;;;;15.16;100.00;101285.97;5032815;28;19932;-81
2023/09/01 08:28:32;;;;;;;;;;;;;;;15.19;100.00;101281.31;4993926;28;19940;-92
2023/09/01 08:31:17;;;;;;;;;;;;;;;15.25;100.00;101280.09;4988390;28;20385;-90
2023/09/01 08:34:03;;;;;;;;;;;;;;;15.30;100.00;101288.69;5021333;28;19932;-91
2023/09/01 08:36:49;;;;;;;;;;;;;;;15.38;100.00;101285.56;4966540;28;19930;-89
2023/09/01 08:39:34;;;;;;;;;;;;;;;15.44;100.00;101289.69;4996282;28;19933;-90
2023/09/01 08:42:21;;;;;;;;;;;;;;;15.49;100.00;101290.28;4986882;28;19984;-92
2023/09/01 08:45:07;;;;;;;;;;;;;;;15.54;100.00;101282.88;4994856;28;19930;-88
2023/09/01 08:47:53;;;;;;;;;;;;;;;15.61;100.00;101284.22;4945773;28;19973;-90
2023/09/01 08:50:39;;;;;;;;;;;;;;;15.64;100.00;101280.50;4985449;28;19927;-87
2023/09/01 08:53:25;;;;;;;;;;;;;;;15.65;100.00;101278.69;4942531;28;19930;-90
2023/09/01 08:56:10;;;;;;;;;;;;;;;15.66;100.00;101283.06;4994610;28;19984;-90
2023/09/01 08:58:56;;;;;;;;;;;;;;;15.66;100.00;101278.59;4986442;28;19988;-90
2023/09/01 09:01:42;;;;;;;;;;;;;;;15.69;100.00;101280.22;5000102;28;19930;-88
2023/09/01 09:04:27;;;;;;;;;;;;;;;15.70;100.00;101279.25;4993624;28;19934;-88
2023/09/01 09:07:17;;;;;;;;;;;;;;;15.71;100.00;101279.19;4997057;28;20297;-88
2023/09/01 09:10:04;;;;;;;;;;;;;;;15.73;100.00;101281.75;4995547;28;19933;-85
2023/09/01 09:12:52;;;;;;;;;;;;;;;15.74;100.00;101288.78;4985436;28;19933;-87
2023/09/01 09:15:38;;;;;;;;;;;;;;;15.79;100.00;101289.38;4993970;28;19934;-88
2023/09/01 09:18:29;;;;;;;;;;;;;;;15.83;100.00;101285.56;4978413;28;19973;-86
2023/09/01 09:21:33;;;;;;;;;;;;;;;15.84;100.00;101289.97;4943864;28;19930;-87
2023/09/01 09:24:34;;;;;;;;;;;;;;;15.86;100.00;101284.53;5007980;28;19980;-87
2023/09/01 09:27:23;;;;;;;;;;;;;;;15.87;100.00;101280.91;4990722;28;19930;-88
2023/09/01 09:30:12;;;;;;;;;;;;;;;15.91;100.00;101284.25;4981500;28;20404;-90
2023/09/01 09:33:08;;;;;;;;;;;;;;;15.93;100.00;101291.25;4983499;28;19949;-89
2023/09/01 09:35:54;;;;;;;;;;;;;;;15.92;100.00;101294.00;5014433;28;20442;-90
2023/09/01 09:38:40;;;;;;;;;;;;;;;15.90;100.00;101291.38;5015418;28;19929;-89
2023/09/01 09:41:26;;;;;;;;;;;;;;;15.91;100.00;101300.28;5030579;28;19940;-91
2023/09/01 09:44:13;;;;;;;;;;;;;;;15.85;100.00;101301.50;4990270;28;20364;-86
2023/09/01 09:47:09;;;;;;;;;;;;;;;15.81;100.00;101298.16;4992788;28;19964;-90
2023/09/01 09:49:57;;;;;;;;;;;;;;;15.80;100.00;101312.44;4989466;28;19930;-87
2023/09/01 09:52:47;;;;;;;;;;;;;;;15.79;100.00;101304.56;5000496;28;20106;-89
2023/09/01 09:55:53;;;;;;;;;;;;;;;15.81;100.00;101303.50;5018714;28;19974;-88
2023/09/01 09:58:44;;;;;;;;;;;;;;;15.91;100.00;101308.28;4968784;28;19968;-89
2023/09/01 10:01:37;;;;;;;;;;;;;;;15.98;100.00;101310.53;4971029;28;19926;-87
2023/09/01 10:04:32;;;;;;;;;;;;;;;16.07;100.00;101313.56;4956836;28;19922;-87
2023/09/01 10:07:21;;;;;;;;;;;;;;;16.09;100.00;101307.19;4942648;28;19937;-87
2023/09/01 10:10:07;;;;;;;;;;;;;;;16.14;100.00;101315.75;4951333;28;20079;-88
2023/09/01 10:12:53;;;;;;;;;;;;;;;16.20;100.00;101313.66;4967277;28;19960;-80
2023/09/01 10:15:42;;;;;;;;;;;;;;;16.26;100.00;101319.50;4970168;28;19912;-90
2023/09/01 10:18:27;;;;;;;;;;;;;;;16.34;100.00;101316.34;4980087;28;20591;-92
2023/09/01 10:21:13;;;;;;;;;;;;;;;16.41;100.00;101316.81;4978160;28;19940;-89
2023/09/01 10:23:59;;;;;;;;;;;;;;;16.51;100.00;101319.78;4977781;28;19969;-81
2023/09/01 10:26:45;;;;;;;;;;;;;;;16.61;100.00;101323.56;4954741;28;19925;-81
2023/09/01 10:29:34;;;;;;;;;;;;;;;16.72;100.00;101324.72;4997592;28;19928;-85
2023/09/01 10:32:20;;;;;;;;;;;;;;;16.88;100.00;101325.44;5033695;28;19964;-83
2023/09/01 10:35:06;;;;;;;;;;;;;;;17.03;100.00;101322.75;5021601;28;19944;-85
2023/09/01 10:38:14;;;;;;;;;;;;;;;17.16;100.00;101318.31;5003194;28;20324;-84
2023/09/01 10:40:59;;;;;;;;;;;;;;;17.28;100.00;101315.78;5016163;28;20406;-85
2023/09/01 10:43:50;;;;;;;;;;;;;;;17.30;100.00;101319.22;5038135;28;20392;-85
2023/09/01 10:46:36;;;;;;;;;;;;;;;17.36;100.00;101329.50;5024085;28;20471;-87
2023/09/01 10:49:36;;;;;;;;;;;;;;;17.35;100.00;101327.78;5031326;28;20375;-85
2023/09/01 10:52:22;;;;;;;;;;;;;;;17.35;100.00;101334.03;5034262;28;19935;-85
2023/09/01 10:55:11;;;;;;;;;;;;;;;17.39;100.00;101332.00;4997636;28;19930;-86
2023/09/01 10:57:56;;;;;;;;;;;;;;;17.47;100.00;101334.13;5037156;28;20463;-85
2023/09/01 11:00:42;;;;;;;;;;;;;;;17.55;100.00;101328.28;5036559;28;19987;-85
2023/09/01 11:03:31;;;;;;;;;;;;;;;17.64;100.00;101331.19;5033789;28;20461;-85
2023/09/01 11:06:21;;;;;;;;;;;;;;;17.72;100.00;101329.81;5021153;28;19935;-84
2023/09/01 11:09:07;;;;;;;;;;;;;;;17.83;100.00;101323.72;4999597;28;19988;-84
2023/09/01 11:11:53;;;;;;;;;;;;;;;17.91;100.00;101329.41;5035450;28;19929;-85
2023/09/01 11:14:39;;;;;;;;;;;;;;;17.97;100.00;101322.78;5034902;28;19983;-84
2023/09/01 11:17:38;;;;;;;;;;;;;;;18.02;100.00;101329.53;5000752;28;19948;-87
2023/09/01 11:20:28;;;;;;;;;;;;;;;18.11;100.00;101324.50;5037242;28;19933;-83
2023/09/01 11:23:24;;;;;;;;;;;;;;;18.19;100.00;101327.50;5035418;28;19982;-85
2023/09/01 11:26:10;;;;;;;;;;;;;;;18.25;100.00;101331.59;5021361;28;19940;-84
2023/09/01 11:28:55;;;;;;;;;;;;;;;18.26;100.00;101334.13;5031773;28;19933;-85
2023/09/01 11:31:42;;;;;;;;;;;;;;;18.29;100.00;101333.06;5035589;28;20485;-85
2023/09/01 11:34:38;;;;;;;;;;;;;;;18.33;100.00;101334.59;5000551;28;19932;-84
2023/09/01 11:37:36;;;;;;;;;;;;;;;18.33;100.00;101342.63;5034858;28;19928;-84
2023/09/01 11:40:23;;;;;;;;;;;;;;;18.28;100.00;101340.28;5035672;28;19929;-85
2023/09/01 11:43:08;;;;;;;;;;;;;;;18.19;100.00;101343.56;5036289;28;19936;-86
2023/09/01 11:45:57;;;;;;;;;;;;;;;18.17;100.00;101340.16;5034414;28;19929;-85
2023/09/01 11:48:46;;;;;;;;;;;;;;;18.16;100.00;101341.13;5019356;28;19929;-84
2023/09/01 11:51:32;;;;;;;;;;;;;;;18.23;100.00;101347.78;5004162;28;19956;-84
2023/09/01 11:54:17;;;;;;;;;;;;;;;18.30;100.00;101345.53;4996354;28;21888;-84
2023/09/01 11:57:12;;;;;;;;;;;;;;;18.40;100.00;101346.56;5035089;28;19933;-85
2023/09/01 11:59:58;;;;;;;;;;;;;;;18.47;100.00;101344.34;4997760;28;19931;-84
2023/09/01 12:02:44;;;;;;;;;;;;;;;18.53;100.00;101345.72;5021255;28;20023;-84
2023/09/01 12:05:30;;;;;;;;;;;;;;;18.59;100.00;101353.31;5021309;28;19933;-85
2023/09/01 12:08:18;;;;;;;;;;;;;;;18.53;100.00;101354.59;5035650;28;20306;-86
2023/09/01 12:11:05;;;;;;;;;;;;;;;18.48;100.00;101354.09;4994978;28;19949;-85
2023/09/01 12:13:51;;;;;;;;;;;;;;;18.47;100.00;101355.06;4996530;28;20463;-84
2023/09/01 12:16:37;;;;;;;;;;;;;;;18.48;100.00;101356.75;4998039;28;19929;-84
2023/09/01 12:19:23;;;;;;;;;;;;;;;18.51;100.00;101353.00;4997829;28;20501;-84
2023/09/01 12:22:09;;;;;;;;;;;;;;;18.52;100.00;101352.88;5035183;28;20398;-85
2023/09/01 12:24:57;;;;;;;;;;;;;;;18.52;100.00;101355.56;5034452;28;21937;-84
2023/09/01 12:27:43;;;;;;;;;;;;;;;18.52;100.00;101355.56;5031615;28;20837;-85
2023/09/01 12:30:28;;;;;;;;;;;;;;;18.48;100.00;101353.22;5034180;28;19929;-86
2023/09/01 12:33:14;;;;;;;;;;;;;;;18.47;100.00;101360.41;5021934;28;19933;-85
2023/09/01 12:36:03;;;;;;;;;;;;;;;18.47;100.00;101363.09;5035906;28;19932;-86
2023/09/01 12:38:49;;;;;;;;;;;;;;;18.48;100.00;101359.44;5031945;28;20067;-86
2023/09/01 12:41:34;;;;;;;;;;;;;;;18.51;100.00;101353.84;5033852;28;20447;-86
2023/09/01 12:44:20;;;;;;;;;;;;;;;18.56;100.00;101362.44;5034982;28;20003;-86
2023/09/01 12:47:06;;;;;;;;;;;;;;;18.61;100.00;101362.09;5035178;28;19948;-85
2023/09/01 12:49:51;;;;;;;;;;;;;;;18.62;100.00;101371.00;5034189;28;19929;-87
2023/09/01 12:52:37;;;;;;;;;;;;;;;18.66;100.00;101364.44;5033673;28;20007;-88
2023/09/01 12:55:23;;;;;;;;;;;;;;;18.68;100.00;101371.41;5033140;28;19925;-85
2023/09/01 12:58:11;;;;;;;;;;;;;;;18.79;100.00;101367.97;4989353;28;20630;-88
2023/09/01 13:01:01;;;;;;;;;;;;;;;18.87;100.00;101364.72;5033710;28;19929;-87
2023/09/01 13:03:46;;;;;;;;;;;;;;;18.92;100.00;101367.94;5031078;28;19932;-87
2023/09/01 13:06:32;;;;;;;;;;;;;;;18.97;100.00;101370.28;5015958;28;19928;-85
2023/09/01 13:09:18;;;;;;;;;;;;;;;18.98;100.00;101367.50;5032840;28;20189;-85
2023/09/01 13:12:10;;;;;;;;;;;;;;;19.04;100.00;101370.72;5032817;28;20395;-85
2023/09/01 13:14:59;;;;;;;;;;;;;;;19.10;100.00;101367.56;5033761;28;21168;-86
2023/09/01 13:17:45;;;;;;;;;;;;;;;19.16;100.00;101356.38;5036815;28;20320;-85
2023/09/01 13:20:31;;;;;;;;;;;;;;;19.19;100.00;101358.00;5010731;28;19936;-87
2023/09/01 13:23:17;;;;;;;;;;;;;;;19.17;100.00;101368.00;5021385;28;19924;-85
2023/09/01 13:26:02;;;;;;;;;;;;;;;19.16;100.00;101366.28;5033263;28;20296;-88
2023/09/01 13:28:48;;;;;;;;;;;;;;;19.12;100.00;101371.88;5021384;28;20694;-87
2023/09/01 13:31:33;;;;;;;;;;;;;;;19.11;100.00;101367.47;5004811;28;19939;-84
2023/09/01 13:34:19;;;;;;;;;;;;;;;19.06;100.00;101353.53;5009715;28;19988;-86
2023/09/01 13:37:09;;;;;;;;;;;;;;;19.02;100.00;101365.47;5002846;28;19934;-87
2023/09/01 13:39:55;;;;;;;;;;;;;;;19.06;100.00;101358.91;4984593;28;19988;-87
2023/09/01 13:42:41;;;;;;;;;;;;;;;19.14;100.00;101361.88;5003803;28;20002;-86
2023/09/01 13:45:26;;;;;;;;;;;;;;;19.20;100.00;101368.63;5036757;28;20483;-86
2023/09/01 13:48:15;;;;;;;;;;;;;;;19.25;100.00;101368.28;5034747;28;20927;-86
2023/09/01 13:51:00;;;;;;;;;;;;;;;19.28;100.00;101365.34;5041225;28;19929;-88
2023/09/01 13:53:46;;;;;;;;;;;;;;;19.33;100.00;101373.09;5035562;28;20015;-86
2023/09/01 13:56:32;;;;;;;;;;;;;;;19.32;100.00;101368.66;5025961;28;20023;-87
2023/09/01 13:59:17;;;;;;;;;;;;;;;19.29;100.00;101371.59;5011384;28;20010;-87
2023/09/01 14:02:04;;;;;;;;;;;;;;;19.29;100.00;101368.91;5039435;28;20058;-87
2023/09/01 14:04:52;;;;;;;;;;;;;;;19.31;100.00;101365.13;5017527;28;19931;-90
2023/09/01 14:07:37;;;;;;;;;;;;;;;19.33;100.00;101371.25;5043001;28;19975;-91
2023/09/01 14:10:23;;;;;;;;;;;;;;;19.38;100.00;101368.22;5049810;28;19932;-94
2023/09/01 14:13:08;;;;;;;;;;;;;;;19.38;100.00;101368.22;4998825;28;20021;-89
2023/09/01 14:15:55;;;;;;;;;;;;;;;19.38;100.00;101373.56;5000605;28;19922;-95